Time,TemperatureF,DewpointF,PressureIn,WindDirection,WindDirectionDegrees,WindSpeedMPH,WindSpeedGustMPH,Humidity,HourlyPrecipIn,Conditions,Clouds,dailyrainin,SoftwareType,DateUTC
2013-09-23 00:14:00,56.0,52.0,29.91,West,280,0.0,-999.0,86,-99.99,,,-99.99,,2013-09-23 04:14:00,
2013-09-23 00:24:00,55.0,51.0,29.91,West,280,0.0,-999.0,87,-99.99,,,-99.99,,2013-09-23 04:24:00,
2013-09-23 00:43:00,55.0,52.0,29.91,West,280,0.0,-999.0,88,-99.99,,,-99.99,,2013-09-23 04:43:00,
2013-09-23 00:54:00,55.0,52.0,29.91,West,280,0.0,-999.0,88,-99.99,,,-99.99,,2013-09-23 04:54:00,
2013-09-23 01:12:00,54.0,51.0,29.92,West,280,0.0,-999.0,89,-99.99,,,-99.99,,2013-09-23 05:12:00,
2013-09-23 01:23:00,54.0,51.0,29.92,West,280,0.0,-999.0,88,-99.99,,,-99.99,,2013-09-23 05:23:00,
2013-09-23 01:43:00,53.0,50.0,29.92,West,280,0.0,-999.0,88,-99.99,,,-99.99,,2013-09-23 05:43:00,
2013-09-23 01:53:00,53.0,50.0,29.92,West,280,0.0,-999.0,88,-99.99,,,-99.99,,2013-09-23 05:53:00,
2013-09-23 02:13:00,53.0,50.0,29.93,West,280,0.0,-999.0,89,-99.99,,,-99.99,,2013-09-23 06:13:00,
2013-09-23 02:22:00,52.0,49.0,29.94,West,280,0.0,-999.0,89,-99.99,,,-99.99,,2013-09-23 06:22:00,
2013-09-23 02:52:00,51.0,48.0,29.94,West,280,0.0,-999.0,91,-99.99,,,-99.99,,2013-09-23 06:52:00,
2013-09-23 03:12:00,51.0,49.0,29.94,West,280,0.0,-999.0,93,-99.99,,,-99.99,,2013-09-23 07:12:00,
2013-09-23 03:22:00,50.0,48.0,29.94,West,280,0.0,-999.0,93,-99.99,,,-99.99,,2013-09-23 07:22:00,
2013-09-23 03:52:00,50.0,48.0,29.95,West,280,0.0,-999.0,94,-99.99,,,-99.99,,2013-09-23 07:52:00,
2013-09-23 04:11:00,50.0,49.0,29.95,West,280,0.0,-999.0,95,-99.99,,,-99.99,,2013-09-23 08:11:00,
2013-09-23 04:23:00,51.0,50.0,29.96,West,280,0.0,-999.0,96,-99.99,,,-99.99,,2013-09-23 08:23:00,
2013-09-23 04:52:00,52.0,51.0,29.96,West,280,0.0,-999.0,96,-99.99,,,-99.99,,2013-09-23 08:52:00,
2013-09-23 05:11:00,52.0,51.0,29.97,West,280,0.0,-999.0,96,-99.99,,,-99.99,,2013-09-23 09:11:00,
2013-09-23 05:22:00,53.0,51.0,29.97,West,280,0.0,-999.0,93,-99.99,,,-99.99,,2013-09-23 09:22:00,
2013-09-23 05:53:00,54.0,51.0,29.97,West,280,0.0,-999.0,89,-99.99,,,-99.99,,2013-09-23 09:53:00,
2013-09-23 06:23:00,55.0,51.0,29.98,WNW,294,0.0,-999.0,85,-99.99,,,-99.99,,2013-09-23 10:23:00,
2013-09-23 06:52:00,55.0,49.0,29.99,WNW,294,0.0,-999.0,81,-99.99,,,-99.99,,2013-09-23 10:52:00,
2013-09-23 07:12:00,55.0,49.0,30.00,WNW,294,0.0,-999.0,79,-99.99,,,-99.99,,2013-09-23 11:12:00,
2013-09-23 07:22:00,55.0,49.0,30.01,WNW,294,0.0,-999.0,80,-99.99,,,-99.99,,2013-09-23 11:22:00,
2013-09-23 07:52:00,55.0,49.0,30.02,WNW,294,0.0,-999.0,79,-99.99,,,-99.99,,2013-09-23 11:52:00,
2013-09-23 08:11:00,55.0,49.0,30.03,NW,319,0.0,-999.0,80,-99.99,,,-99.99,,2013-09-23 12:11:00,
2013-09-23 08:22:00,55.0,48.0,30.04,NW,319,1.0,-999.0,77,-99.99,,,-99.99,,2013-09-23 12:22:00,
2013-09-23 08:52:00,55.0,46.0,30.04,NW,319,1.0,-999.0,72,-99.99,,,-99.99,,2013-09-23 12:52:00,
2013-09-23 09:11:00,56.0,47.0,30.05,NW,319,1.0,-999.0,71,-99.99,,,-99.99,,2013-09-23 13:11:00,
2013-09-23 09:22:00,56.0,47.0,30.05,NNW,340,1.0,-999.0,72,-99.99,,,-99.99,,2013-09-23 13:22:00,
2013-09-23 09:42:00,57.0,48.0,30.05,North,355,1.0,-999.0,71,-99.99,,,-99.99,,2013-09-23 13:42:00,
2013-09-23 09:52:00,58.0,47.0,30.05,West,281,1.0,-999.0,66,-99.99,,,-99.99,,2013-09-23 13:52:00,
2013-09-23 10:12:00,60.0,47.0,30.05,North,355,2.0,-999.0,63,-99.99,,,-99.99,,2013-09-23 14:12:00,
2013-09-23 10:22:00,62.0,49.0,30.05,North,355,2.0,-999.0,63,-99.99,,,-99.99,,2013-09-23 14:22:00,
2013-09-23 10:42:00,61.0,48.0,30.06,NNW,344,1.0,-999.0,62,-99.99,,,-99.99,,2013-09-23 14:42:00,
2013-09-23 10:52:00,60.0,48.0,30.06,NNW,338,1.0,-999.0,65,-99.99,,,-99.99,,2013-09-23 14:52:00,
2013-09-23 11:12:00,62.0,49.0,30.06,North,355,1.0,-999.0,62,-99.99,,,-99.99,,2013-09-23 15:12:00,
2013-09-23 11:43:00,65.0,50.0,30.05,WNW,286,1.0,-999.0,58,-99.99,,,-99.99,,2013-09-23 15:43:00,
2013-09-23 15:22:00,71.0,52.0,30.00,WNW,296,1.0,-999.0,51,-99.99,,,-99.99,,2013-09-23 19:22:00,
2013-09-23 15:53:00,67.0,51.0,29.99,ENE,60,1.0,-999.0,56,-99.99,,,-99.99,,2013-09-23 19:53:00,
2013-09-23 16:22:00,66.0,52.0,29.99,NW,307,1.0,-999.0,61,-99.99,,,-99.99,,2013-09-23 20:22:00,
2013-09-23 16:52:00,66.0,51.0,29.99,NW,323,0.0,-999.0,59,-99.99,,,-99.99,,2013-09-23 20:52:00,
2013-09-23 17:12:00,66.0,50.0,29.99,WNW,284,1.0,-999.0,57,-99.99,,,-99.99,,2013-09-23 21:12:00,
2013-09-23 17:23:00,66.0,53.0,29.99,North,11,0.0,-999.0,63,-99.99,,,-99.99,,2013-09-23 21:23:00,
2013-09-23 17:44:00,65.0,51.0,29.99,NNE,29,1.0,-999.0,61,-99.99,,,-99.99,,2013-09-23 21:44:00,
2013-09-23 17:54:00,64.0,52.0,29.99,NNW,329,0.0,-999.0,64,-99.99,,,-99.99,,2013-09-23 21:54:00,
2013-09-23 18:13:00,64.0,53.0,29.99,NW,311,0.0,-999.0,68,-99.99,,,-99.99,,2013-09-23 22:13:00,
2013-09-23 18:24:00,63.0,51.0,30.00,NW,311,0.0,-999.0,66,-99.99,,,-99.99,,2013-09-23 22:24:00,
2013-09-23 18:54:00,62.0,51.0,30.00,NE,46,0.0,-999.0,67,-99.99,,,-99.99,,2013-09-23 22:54:00,
2013-09-23 19:12:00,62.0,52.0,30.00,NE,45,0.0,-999.0,70,-99.99,,,-99.99,,2013-09-23 23:12:00,
2013-09-23 19:22:00,61.0,51.0,30.00,NE,45,0.0,-999.0,69,-99.99,,,-99.99,,2013-09-23 23:22:00,
2013-09-23 19:53:00,59.0,49.0,30.01,NE,45,0.0,-999.0,70,-99.99,,,-99.99,,2013-09-23 23:53:00,
2013-09-23 20:12:00,59.0,51.0,30.01,NE,45,0.0,-999.0,74,-99.99,,,-99.99,,2013-09-24 00:12:00,
2013-09-23 20:22:00,58.0,50.0,30.02,NE,45,0.0,-999.0,76,-99.99,,,-99.99,,2013-09-24 00:22:00,
2013-09-23 20:42:00,57.0,50.0,30.02,NE,45,0.0,-999.0,78,-99.99,,,-99.99,,2013-09-24 00:42:00,
2013-09-23 20:52:00,56.0,50.0,30.03,NE,45,0.0,-999.0,81,-99.99,,,-99.99,,2013-09-24 00:52:00,
2013-09-23 21:12:00,56.0,50.0,30.03,NE,45,0.0,-999.0,81,-99.99,,,-99.99,,2013-09-24 01:12:00,
2013-09-23 21:22:00,55.0,50.0,30.03,NE,45,0.0,-999.0,84,-99.99,,,-99.99,,2013-09-24 01:22:00,
2013-09-23 21:43:00,54.0,50.0,30.03,NE,45,0.0,-999.0,86,-99.99,,,-99.99,,2013-09-24 01:43:00,
2013-09-23 21:52:00,53.0,49.0,30.03,NE,45,0.0,-999.0,87,-99.99,,,-99.99,,2013-09-24 01:52:00,
2013-09-23 22:12:00,53.0,50.0,30.03,NE,45,0.0,-999.0,88,-99.99,,,-99.99,,2013-09-24 02:12:00,
2013-09-23 22:23:00,52.0,49.0,30.03,NE,45,0.0,-999.0,89,-99.99,,,-99.99,,2013-09-24 02:23:00,
2013-09-23 22:42:00,52.0,49.0,30.04,NE,45,0.0,-999.0,90,-99.99,,,-99.99,,2013-09-24 02:42:00,
2013-09-23 22:52:00,51.0,48.0,30.04,NE,45,0.0,-999.0,90,-99.99,,,-99.99,,2013-09-24 02:52:00,
2013-09-23 23:12:00,51.0,48.0,30.04,NE,45,0.0,-999.0,91,-99.99,,,-99.99,,2013-09-24 03:12:00,
2013-09-23 23:22:00,51.0,48.0,30.05,NE,45,0.0,-999.0,91,-99.99,,,-99.99,,2013-09-24 03:22:00,
2013-09-23 23:54:00,50.0,48.0,30.04,NE,45,0.0,-999.0,92,-99.99,,,-99.99,,2013-09-24 03:54:00,